Flight Track Log - Related Links

Times and Time Zones

All times are in EDT time to prevent confusion due to time zone crossing. See the AAL2007 flight status page for this flight to view local times or setup timezone preferences in your user account.

Time Position Orientation Groundspeed Altitude Reporting Facility
EDT Latitude Longitude Course Direction KTS MPH feet Rate Location/Type
Sun 06:03:31 PM 41.9342 -87.9242 253° West 159 183 2,200  Level Chicago Center
Sun 06:03:47 PM 41.9333 -87.9500 268° West 196 226 2,800 2,211 Climbing Chicago TRACON
Sun 06:04:47 PM 41.9333 -88.0333 270° West 260 299 5,000 2,682 Climbing Chicago TRACON
Sun 06:05:00 PM 41.8770 -88.3326 242° Southwest  Level FlightAware Approximate
Sun 06:06:00 PM 41.8354 -88.4728 255° West  Level FlightAware Approximate
Sun 06:06:37 PM 41.9158 -88.2128 263° West 267 307 10,400  Level Chicago Center
Sun 06:07:00 PM 41.8035 -88.6185 254° West  Level FlightAware Approximate
Sun 06:07:39 PM 41.8811 -88.3139 245° Southwest 299 344 12,100  Level Chicago Center
Sun 06:08:00 PM 41.7712 -88.7640 253° West  Level FlightAware Approximate
Sun 06:08:42 PM 41.8586 -88.4339 256° West 332 382 14,400  Level Chicago Center
Sun 06:09:44 PM 41.8225 -88.5819 252° West 350 403 17,300 2,468 Climbing Chicago Center
Sun 06:10:46 PM 41.7931 -88.7083 253° West 358 412 19,500 1,984 Climbing Chicago Center
Sun 06:11:48 PM 41.7631 -88.8350 252° West 360 414 21,400 1,694 Climbing Chicago Center
Sun 06:12:50 PM 41.7319 -88.9667 252° West 373 429 23,000 1,597 Climbing Chicago Center
Sun 06:13:52 PM 41.7006 -89.1011 253° West 382 440 24,700 1,597 Climbing Chicago Center
Sun 06:14:54 PM 41.6619 -89.2650 253° West 390 449 26,300 1,452 Climbing Chicago Center
Sun 06:15:56 PM 41.6278 -89.4053 252° West 397 457 27,700 1,548 Climbing Chicago Center
Sun 06:16:58 PM 41.5936 -89.5442 252° West 398 458 29,500 1,113 Climbing Chicago Center
Sun 06:18:00 PM 41.5558 -89.7003 252° West 399 459 30,000 242 Climbing Chicago Center
Sun 06:19:02 PM 41.5214 -89.8439 252° West 407 468 30,000  Level Chicago Center
Sun 06:20:04 PM 41.4861 -89.9856 252° West 406 467 30,000  Level Chicago Center
Sun 06:21:06 PM 41.4500 -90.1281 251° West 407 468 30,000  Level Chicago Center
Sun 06:22:09 PM 41.4150 -90.2714 252° West 409 471 30,000  Level Chicago Center
Sun 06:23:11 PM 41.3714 -90.4436 251° West 411 473 30,000  Level Chicago Center
Sun 06:24:13 PM 41.3344 -90.5872 251° West 411 473 30,000  Level Chicago Center
Sun 06:25:15 PM 41.2739 -90.7197 239° Southwest 422 486 30,000  Level Chicago Center
Sun 06:26:17 PM 41.2017 -90.8414 232° Southwest 421 484 30,000  Level Chicago Center
Sun 06:27:19 PM 41.1294 -90.9633 232° Southwest 422 486 30,000  Level Chicago Center
Sun 06:28:21 PM 41.0569 -91.0858 232° Southwest 422 486 30,000  Level Chicago Center
Sun 06:29:23 PM 40.9694 -91.2314 232° Southwest 423 487 30,000  Level Chicago Center
Sun 06:30:25 PM 40.9008 -91.3447 231° Southwest 424 488 30,000  Level Chicago Center
Sun 06:31:27 PM 40.8297 -91.4650 232° Southwest 419 482 30,000  Level Chicago Center
Sun 06:32:29 PM 40.7422 -91.6072 231° Southwest 418 481 30,000  Level Chicago Center
Sun 06:33:31 PM 40.6722 -91.7247 232° Southwest 413 475 30,000 211 Level Chicago Center
Sun 06:34:23 PM 40.6147 -91.8169 231° Southwest 412 474 30,400 1,071 Climbing Kansas City Center
Sun 06:35:23 PM 40.5439 -91.9306 231° Southwest 407 468 32,000 774 Climbing Kansas City Center
Sun 06:36:27 PM 40.4764 -92.0414 231° Southwest 395 455 32,000 190 Level Kansas City Center
Sun 06:37:29 PM 40.4089 -92.1514 231° Southwest 391 450 32,400 780 Climbing Kansas City Center
Sun 06:38:30 PM 40.3283 -92.2814 231° Southwest 387 445 33,600 774 Climbing Kansas City Center
Sun 06:39:33 PM 40.2586 -92.3917 230° Southwest 384 442 34,000 194 Climbing Kansas City Center
Sun 06:40:34 PM 40.1750 -92.4744 217° Southwest 394 453 34,000  Level Kansas City Center
Sun 06:41:35 PM 40.0839 -92.5769 221° Southwest 389 448 34,000  Level Kansas City Center
Sun 06:42:38 PM 40.0069 -92.6611 220° Southwest 388 447 34,000  Level Kansas City Center
Sun 06:43:39 PM 39.9233 -92.7511 220° Southwest 390 449 34,000  Level Kansas City Center
Sun 06:44:42 PM 39.8403 -92.8400 219° Southwest 390 449 34,000  Level Kansas City Center
Sun 06:45:46 PM 39.7417 -92.9511 221° Southwest 392 451 34,000  Level Kansas City Center
Sun 06:46:46 PM 39.6583 -93.0389 219° Southwest 391 450 34,000  Level Kansas City Center
Sun 06:47:47 PM 39.5739 -93.1281 219° Southwest 393 452 34,000  Level Kansas City Center
Sun 06:48:50 PM 39.4894 -93.2178 219° Southwest 393 452 34,000  Level Kansas City Center
Sun 06:49:54 PM 39.4061 -93.3067 220° Southwest 392 451 34,000  Level Kansas City Center
Sun 06:50:54 PM 39.3053 -93.4139 219° Southwest 394 453 34,000  Level Kansas City Center
Sun 06:51:56 PM 39.2253 -93.5008 220° Southwest 394 453 34,000  Level Kansas City Center
Sun 06:52:59 PM 39.1306 -93.5994 219° Southwest 392 451 34,000  Level Kansas City Center
Sun 06:54:00 PM 39.0508 -93.6844 220° Southwest 390 449 34,000  Level Kansas City Center
Sun 06:55:01 PM 38.9561 -93.7836 219° Southwest 392 451 34,000  Level Kansas City Center
Sun 06:56:05 PM 38.8747 -93.8678 219° Southwest 392 451 34,000  Level Kansas City Center
Sun 06:57:05 PM 38.7797 -93.9667 219° Southwest 393 452 34,000  Level Kansas City Center
Sun 06:58:09 PM 38.6978 -94.0519 219° Southwest 394 453 34,000  Level Kansas City Center
Sun 06:59:09 PM 38.6161 -94.1372 219° Southwest 395 455 34,000  Level Kansas City Center
Sun 07:00:13 PM 38.5186 -94.2372 219° Southwest 400 460 34,000  Level Kansas City Center
Sun 07:01:13 PM 38.4375 -94.3200 219° Southwest 392 451 34,000  Level Kansas City Center
Sun 07:02:17 PM 38.3403 -94.4206 219° Southwest 399 459 34,000  Level Kansas City Center
Sun 07:03:20 PM 38.2558 -94.5003 217° Southwest 398 458 34,000  Level Kansas City Center
Sun 07:04:21 PM 38.1414 -94.5711 206° Southwest 406 467 34,000  Level Kansas City Center
Sun 07:05:22 PM 38.0428 -94.6361 207° Southwest 414 476 34,000  Level Kansas City Center
Sun 07:06:23 PM 37.9275 -94.7103 207° Southwest 414 476 34,000  Level Kansas City Center
Sun 07:07:27 PM 37.8294 -94.7725 207° Southwest 412 474 34,000  Level Kansas City Center
Sun 07:08:28 PM 37.7308 -94.8358 207° Southwest 413 475 34,000  Level Kansas City Center
Sun 07:09:32 PM 37.6347 -94.9239 216° Southwest 406 467 34,000  Level Kansas City Center
Sun 07:10:32 PM 37.5444 -95.0072 216° Southwest 404 465 34,000  Level Kansas City Center
Sun 07:11:33 PM 37.4367 -95.1114 218° Southwest 406 467 34,000  Level Kansas City Center
Sun 07:12:37 PM 37.3514 -95.2019 220° Southwest 402 463 34,000  Level Kansas City Center
Sun 07:13:38 PM 37.2711 -95.2994 224° Southwest 401 461 34,000  Level Kansas City Center
Sun 07:14:40 PM 37.1919 -95.3969 224° Southwest 400 460 34,000  Level Kansas City Center
Sun 07:15:43 PM 37.1094 -95.4911 222° Southwest 401 461 34,000  Level Kansas City Center
Sun 07:16:44 PM 37.0256 -95.5889 223° Southwest 408 470 34,000  Level Kansas City Center
Sun 07:17:48 PM 36.9236 -95.7028 222° Southwest 410 472 34,000  Level Kansas City Center
Sun 07:18:48 PM 36.8344 -95.7944 219° Southwest 416 479 34,000  Level Kansas City Center
Sun 07:19:50 PM 36.7450 -95.8836 219° Southwest 415 478 34,000  Level Kansas City Center
Sun 07:20:54 PM 36.6500 -95.9686 216° Southwest 420 483 34,000  Level Kansas City Center
Sun 07:21:55 PM 36.5542 -96.0514 215° Southwest 422 486 34,000  Level Kansas City Center
Sun 07:22:55 PM 36.4417 -96.1528 216° Southwest 419 482 34,000  Level Kansas City Center
Sun 07:23:59 PM 36.3339 -96.2144 205° Southwest 426 490 34,000  Level Kansas City Center
Sun 07:25:00 PM 36.2161 -96.2464 192° South 432 497 34,000  Level Kansas City Center
Sun 07:26:04 PM 36.0950 -96.2719 190° South 440 506 34,000  Level Kansas City Center
Sun 07:27:04 PM 35.9742 -96.3022 191° South 443 510 34,000  Level Kansas City Center
Sun 07:28:08 PM 35.8308 -96.3367 191° South 441 507 34,000  Level Kansas City Center
Sun 07:29:08 PM 35.7097 -96.3619 190° South 440 506 34,000  Level Kansas City Center
Sun 07:30:12 PM 35.5858 -96.3914 191° South 443 510 34,000  Level Kansas City Center
Sun 07:31:13 PM 35.4578 -96.4214 191° South 456 525 34,000  Level Kansas City Center
Sun 07:32:13 PM 35.3331 -96.4506 191° South 456 525 34,000  Level Kansas City Center
Sun 07:33:17 PM 35.2075 -96.4794 191° South 456 525 34,000  Level Kansas City Center
Sun 07:34:18 PM 35.0811 -96.5086 191° South 459 528 34,000  Level Kansas City Center
Sun 07:35:25 PM 34.9236 -96.5450 191° South 462 532 34,000  Level Fort Worth Center
Sun 07:36:25 PM 34.8006 -96.5739 191° South 457 526 34,000  Level Fort Worth Center
Sun 07:37:25 PM 34.6778 -96.6056 192° South 457 526 34,000  Level Fort Worth Center
Sun 07:38:25 PM 34.5528 -96.6319 190° South 452 520 34,000  Level Fort Worth Center
Sun 07:39:25 PM 34.4297 -96.6631 192° South 452 520 34,000  Level Fort Worth Center
Sun 07:40:25 PM 34.3047 -96.6919 191° South 441 507 34,000  Level Fort Worth Center
Sun 07:41:25 PM 34.1819 -96.7181 190° South 447 514 34,000  Level Fort Worth Center
Sun 07:42:25 PM 34.0733 -96.7389 189° South 452 520 34,000  Level Fort Worth Center
Sun 07:43:25 PM 33.9483 -96.7675 191° South 452 520 34,000  Level Fort Worth Center
Sun 07:44:25 PM 33.8233 -96.7983 192° South 452 520 34,000  Level Fort Worth Center
Sun 07:45:25 PM 33.6961 -96.8267 190° South 457 526 34,000  Level Fort Worth Center
Sun 07:46:25 PM 33.5711 -96.8525 190° South 462 532 34,000  Level Fort Worth Center
Sun 07:47:25 PM 33.4439 -96.8808 191° South 467 537 34,000  Level Fort Worth Center
Sun 07:48:25 PM 33.3208 -96.9089 191° South 467 537 34,000  Level Fort Worth Center
Sun 07:49:25 PM 33.1936 -96.9344 190° South 467 537 34,000  Level Fort Worth Center
Sun 07:50:25 PM 33.0642 -96.9622 190° South 467 537 34,000  Level Fort Worth Center
Sun 07:51:25 PM 32.9369 -96.9925 191° South 467 537 34,000  Level Fort Worth Center
Sun 07:52:25 PM 32.7953 -97.0231 190° South 467 537 34,000  Level Fort Worth Center
Sun 07:53:25 PM 32.6658 -97.0506 190° South 472 543 34,000 -400 Level Fort Worth Center
Sun 07:54:25 PM 32.5322 -97.0536 181° South 472 543 33,200 -900 Descending Fort Worth Center
Sun 07:55:25 PM 32.3986 -97.0444 177° South 472 543 32,200 -1,000 Descending Fort Worth Center
Sun 07:56:25 PM 32.2692 -97.0619 187° South 472 543 31,200 -1,000 Descending Fort Worth Center
Sun 07:57:25 PM 32.1397 -97.0847 188° South 477 549 30,200 -950 Descending Fort Worth Center
Sun 07:58:25 PM 32.0106 -97.1022 187° South 482 555 29,300 -950 Descending Fort Worth Center
Sun 07:59:25 PM 31.8978 -97.1172 186° South 470 541 28,300 -1,000 Descending Fort Worth Center
Sun 08:00:25 PM 31.7747 -97.1300 185° South 455 524 27,300 -1,000 Descending Fort Worth Center
Sun 08:01:25 PM 31.6556 -97.1497 188° South 443 510 26,300 -1,000 Descending Fort Worth Center
Sun 08:02:25 PM 31.5386 -97.1647 186° South 432 497 25,300 -1,059 Descending Fort Worth Center
Sun 08:03:41 PM 31.3911 -97.1844 187° South 395 455 23,900 -1,043 Descending Houston Center
Sun 08:04:43 PM 31.2836 -97.1992 187° South 387 445 22,900 -1,268 Descending Houston Center
Sun 08:05:44 PM 31.1808 -97.2194 190° South 373 429 21,300 -2,537 Descending Houston Center
Sun 08:06:46 PM 31.0803 -97.2611 200° South 381 438 17,700 -2,903 Descending Houston Center
Sun 08:07:48 PM 30.9731 -97.3019 198° South 399 459 15,300 -2,177 Descending Houston Center
Sun 08:08:50 PM 30.8583 -97.3461 198° South 394 453 13,200 -1,548 Descending Houston Center
Sun 08:09:52 PM 30.7681 -97.3806 198° South 349 402 12,100 -1,065 Descending Houston Center
Sun 08:10:54 PM 30.6869 -97.4114 198° South 316 364 11,000 -1,268 Descending Houston Center
Sun 08:11:55 PM 30.6108 -97.4411 199° South 294 338 9,500 -1,463 Descending Houston Center
Sun 08:12:57 PM 30.5500 -97.4958 218° Southwest 286 329 8,000 -1,500 Descending Houston Center
Sun 08:13:59 PM 30.5053 -97.5694 235° Southwest 279 321 6,400 -1,355 Descending Houston Center
Sun 08:15:01 PM 30.4550 -97.6306 226° Southwest 265 305 5,200 -1,113 Descending Houston Center
Sun 08:16:03 PM 30.3872 -97.6697 206° Southwest 234 269 4,100 -1,065 Descending Houston Center

Login

Don't have an account? Register now (free) for customized features, flight alerts, and more!